Time;durP1;ratioP1;P1;durP2;ratioP2;P2;SDS_P1;SDS_P2;PMS_P1;PMS_P2;Temp;Humidity;BMP_temperature;BMP_pressure;BME280_temperature;BME280_humidity;BME280_pressure;Samples;Min_cycle;Max_cycle;Signal;HPM_P1;HPM_P2
2021/05/14 00:00:03;;;;;;;5.75;3.80;;;;;;;16.08;57.08;98523.23;1640448;86;20994;-84
2021/05/14 00:02:29;;;;;;;11.15;3.75;;;;;;;16.02;57.20;98525.48;1633816;86;21176;-83
2021/05/14 00:04:58;;;;;;;8.63;3.30;;;;;;;16.07;56.90;98522.13;1639632;86;21057;-87
2021/05/14 00:07:27;;;;;;;7.00;3.15;;;;;;;16.06;56.77;98521.30;1633663;86;21061;-82
2021/05/14 00:09:55;;;;;;;5.30;3.30;;;;;;;15.93;56.95;98525.02;1610966;86;21172;-83
2021/05/14 00:12:22;;;;;;;7.70;3.58;;;;;;;15.82;57.26;98520.50;1616346;86;21116;-82
2021/05/14 00:14:47;;;;;;;6.55;4.03;;;;;;;15.57;58.32;98518.02;1606867;86;21060;-85
2021/05/14 00:17:13;;;;;;;7.83;3.55;;;;;;;15.72;57.46;98519.72;1637116;86;21001;-84
2021/05/14 00:19:41;;;;;;;6.65;3.50;;;;;;;15.72;57.75;98519.72;1646324;86;21001;-83
2021/05/14 00:22:10;;;;;;;6.40;3.60;;;;;;;15.69;57.55;98510.86;1637142;86;21273;-85
2021/05/14 00:24:36;;;;;;;7.42;3.27;;;;;;;15.70;57.67;98517.78;1640465;86;21013;-83
2021/05/14 00:27:01;;;;;;;9.25;3.65;;;;;;;15.72;57.74;98517.55;1637048;86;21016;-86
2021/05/14 00:29:27;;;;;;;8.30;3.50;;;;;;;15.50;58.47;98514.11;1643142;86;21034;-82
2021/05/14 00:31:57;;;;;;;7.12;3.55;;;;;;;15.48;58.71;98511.41;1639061;86;20997;-82
2021/05/14 00:34:24;;;;;;;7.22;3.77;;;;;;;15.33;59.33;98517.14;1643070;86;21263;-83
2021/05/14 00:36:50;;;;;;;6.85;3.30;;;;;;;15.20;59.72;98514.16;1634608;86;21170;-83
2021/05/14 00:39:18;;;;;;;8.23;3.58;;;;;;;15.12;60.04;98510.48;1643725;86;21064;-84
2021/05/14 00:41:44;;;;;;;7.33;3.47;;;;;;;15.22;59.45;98510.22;1644639;86;21224;-82
2021/05/14 00:44:30;;;;;;;7.90;3.87;;;;;;;15.31;59.49;98512.05;1642203;86;21116;-82
2021/05/14 00:46:58;;;;;;;8.83;3.62;;;;;;;15.19;59.91;98507.22;1622675;86;21357;-83
2021/05/14 00:49:24;;;;;;;7.50;3.60;;;;;;;15.17;59.84;98516.75;1635869;86;21546;-83
2021/05/14 00:51:50;;;;;;;10.32;3.50;;;;;;;15.02;60.72;98510.53;1601244;87;20977;-82
2021/05/14 00:54:16;;;;;;;7.67;3.75;;;;;;;15.03;60.70;98513.46;1631506;86;20934;-84
2021/05/14 00:56:45;;;;;;;6.97;3.67;;;;;;;15.14;60.52;98513.73;1631439;87;20962;-83
2021/05/14 00:59:11;;;;;;;5.65;3.58;;;;;;;15.13;60.60;98514.77;1634390;87;21259;-83
2021/05/14 01:01:36;;;;;;;8.43;3.45;;;;;;;15.18;60.49;98515.72;1628190;86;21015;-85
2021/05/14 01:04:05;;;;;;;7.62;3.60;;;;;;;15.22;60.12;98521.39;1631485;86;20988;-84
2021/05/14 01:06:31;;;;;;;9.38;3.80;;;;;;;15.30;59.75;98517.06;1628965;87;20966;-85
2021/05/14 01:08:58;;;;;;;4.70;3.52;;;;;;;15.11;60.72;98516.85;1636975;87;21111;-84
2021/05/14 01:11:24;;;;;;;8.80;3.70;;;;;;;15.17;60.62;98519.94;1630618;87;21382;-85
2021/05/14 01:13:49;;;;;;;6.92;4.03;;;;;;;15.03;61.15;98516.12;1629156;86;21202;-86
2021/05/14 01:16:15;;;;;;;7.35;3.90;;;;;;;14.92;61.19;98510.25;1631316;87;21164;-86
2021/05/14 01:18:42;;;;;;;6.40;3.42;;;;;;;14.95;61.13;98512.45;1629505;86;21053;-88
2021/05/14 01:21:11;;;;;;;7.67;3.75;;;;;;;14.94;61.31;98506.84;1604261;87;21560;-88
2021/05/14 01:23:37;;;;;;;6.55;3.87;;;;;;;14.92;61.63;98510.77;1632098;86;22085;-87
2021/05/14 01:26:12;;;;;;;6.50;4.08;;;;;;;14.87;61.68;98512.77;1628856;86;21920;-88
2021/05/14 01:28:37;;;;;;;9.20;3.87;;;;;;;14.79;62.11;98510.41;1629253;86;21254;-85
2021/05/14 01:31:03;;;;;;;7.17;3.70;;;;;;;14.82;61.84;98503.31;1627849;87;20958;-85
2021/05/14 01:33:31;;;;;;;6.08;3.67;;;;;;;14.88;61.51;98507.73;1625761;86;21046;-83
2021/05/14 01:35:58;;;;;;;11.28;4.00;;;;;;;14.88;61.81;98502.42;1627681;86;21351;-86
2021/05/14 01:38:25;;;;;;;8.03;3.92;;;;;;;14.99;61.37;98503.50;1629377;86;21147;-84
2021/05/14 01:40:51;;;;;;;11.03;4.35;;;;;;;14.81;62.04;98501.71;1627574;86;21565;-84
2021/05/14 01:43:16;;;;;;;12.33;3.87;;;;;;;14.83;62.07;98503.62;1630933;86;21017;-82
2021/05/14 01:45:42;;;;;;;8.48;3.80;;;;;;;14.78;62.24;98499.50;1624929;86;20958;-84
2021/05/14 01:48:08;;;;;;;7.00;3.98;;;;;;;14.80;62.24;98497.42;1608462;86;21608;-85
2021/05/14 01:50:34;;;;;;;7.80;3.87;;;;;;;14.78;62.53;98496.84;1625335;86;21086;-87
2021/05/14 01:53:03;;;;;;;9.15;3.75;;;;;;;14.84;62.15;98499.94;1633913;86;21580;-83
2021/05/14 01:55:31;;;;;;;8.63;4.28;;;;;;;14.75;62.77;98498.09;1622947;86;21157;-86
2021/05/14 01:58:01;;;;;;;9.03;4.33;;;;;;;14.85;62.28;98500.20;1621749;86;21651;-83
2021/05/14 02:00:28;;;;;;;7.62;3.77;;;;;;;14.79;62.70;98502.44;1626599;86;21363;-84
2021/05/14 02:02:53;;;;;;;7.60;4.10;;;;;;;14.54;63.99;98505.97;1610720;86;21264;-91
2021/05/14 02:05:21;;;;;;;12.13;4.30;;;;;;;14.57;63.91;98508.19;1623164;86;20970;-84
2021/05/14 02:07:48;;;;;;;;;;;;;;;14.53;63.99;98503.05;1614801;86;21238;-83
2021/05/14 02:10:14;;;;;;;7.65;4.50;;;;;;;14.58;63.83;98501.84;1627692;86;20220;-82
2021/05/14 02:12:40;;;;;;;8.78;4.20;;;;;;;14.67;63.62;98507.19;1629361;86;21656;-83
2021/05/14 02:15:09;;;;;;;8.48;3.95;;;;;;;14.71;63.46;98507.05;1624884;86;21058;-83
2021/05/14 02:17:35;;;;;;;5.70;3.85;;;;;;;14.80;63.23;98509.38;1624442;86;21196;-86
2021/05/14 02:20:06;;;;;;;6.95;3.98;;;;;;;14.84;62.87;98501.27;1633839;86;21069;-83
2021/05/14 02:22:35;;;;;;;7.33;4.10;;;;;;;14.83;62.61;98504.95;1624184;86;20978;-83
2021/05/14 02:25:01;;;;;;;5.62;3.80;;;;;;;14.87;62.45;98508.79;1623988;86;21573;-84
2021/05/14 02:27:27;;;;;;;8.78;4.00;;;;;;;14.85;62.40;98503.70;1613002;86;22904;-84
2021/05/14 02:29:56;;;;;;;7.70;4.10;;;;;;;14.83;62.47;98507.61;1622253;86;21071;-84
2021/05/14 02:32:24;;;;;;;6.80;4.15;;;;;;;14.82;62.67;98504.64;1623184;86;21149;-86
2021/05/14 02:34:54;;;;;;;7.17;4.22;;;;;;;14.61;63.30;98505.42;1630000;86;21140;-84
2021/05/14 02:37:20;;;;;;;7.90;4.22;;;;;;;14.62;63.21;98507.05;1630238;86;21566;-83
2021/05/14 02:39:46;;;;;;;7.58;4.17;;;;;;;14.74;63.09;98502.30;1622570;86;27746;-84
2021/05/14 02:42:12;;;;;;;10.18;4.60;;;;;;;14.72;62.97;98502.00;1623467;86;21120;-82
2021/05/14 02:44:39;;;;;;;8.53;4.35;;;;;;;14.74;62.86;98498.31;1627727;86;21210;-84
2021/05/14 02:47:05;;;;;;;5.53;4.12;;;;;;;14.64;63.21;98502.31;1616552;86;21946;-83
2021/05/14 02:49:31;;;;;;;10.03;4.25;;;;;;;14.60;63.62;98518.39;1613913;87;21217;-83
2021/05/14 02:52:02;;;;;;;7.08;4.47;;;;;;;14.54;64.06;98519.25;1587194;88;27280;-84
2021/05/14 02:54:32;;;;;;;10.55;4.37;;;;;;;14.57;63.96;98517.48;1597092;88;20969;-83
2021/05/14 02:57:00;;;;;;;7.65;4.33;;;;;;;14.59;63.59;98520.75;1603874;88;21059;-88
2021/05/14 02:59:26;;;;;;;7.90;4.20;;;;;;;14.62;63.71;98519.00;1601792;88;21161;-83
2021/05/14 03:01:53;;;;;;;7.65;4.50;;;;;;;14.55;64.23;98519.56;1606644;88;21296;-84
2021/05/14 03:04:22;;;;;;;;;;;;;;;14.53;64.20;98521.64;1604438;88;21026;-85
2021/05/14 03:06:53;;;;;;;7.55;4.35;;;;;;;14.50;64.42;98518.09;1574452;88;20261;-82
2021/05/14 03:09:21;;;;;;;9.05;4.70;;;;;;;14.53;64.23;98526.95;1601043;88;21005;-83
2021/05/14 03:11:48;;;;;;;7.53;4.50;;;;;;;14.39;65.01;98525.45;1604052;88;20998;-85
2021/05/14 03:14:14;;;;;;;;;;;;;;;14.25;65.45;98524.28;1610677;88;22167;-85
2021/05/14 03:16:40;;;;;;;7.87;4.70;;;;;;;14.35;65.07;98527.22;1594915;87;20198;-84
2021/05/14 03:19:06;;;;;;;9.05;4.47;;;;;;;14.34;65.54;98532.25;1610976;88;21185;-84
2021/05/14 03:21:32;;;;;;;9.93;4.45;;;;;;;14.32;65.93;98525.53;1597773;87;21142;-83
2021/05/14 03:23:58;;;;;;;6.70;4.62;;;;;;;14.48;65.67;98529.44;1610799;88;21099;-84
2021/05/14 03:26:26;;;;;;;9.33;4.92;;;;;;;14.54;65.47;98531.20;1602776;88;21382;-84
2021/05/14 03:28:54;;;;;;;10.65;4.97;;;;;;;14.49;65.56;98529.22;1599594;88;21670;-84
2021/05/14 03:31:19;;;;;;;9.58;4.75;;;;;;;14.44;65.95;98533.59;1606900;87;25268;-88
2021/05/14 03:33:47;;;;;;;11.55;4.67;;;;;;;14.47;66.00;98534.47;1601343;88;21741;-85
2021/05/14 03:36:19;;;;;;;13.13;4.58;;;;;;;14.53;65.54;98529.60;1602083;88;21529;-83
2021/05/14 03:38:44;;;;;;;8.60;5.00;;;;;;;14.59;65.42;98532.70;1599757;88;21033;-83
2021/05/14 03:43:40;;;;;;;10.48;4.70;;;;;;;14.45;66.16;98543.16;1580596;88;21113;-84
2021/05/14 03:46:06;;;;;;;8.50;5.03;;;;;;;14.70;65.28;98543.94;1595842;87;21180;-84
2021/05/14 03:48:34;;;;;;;10.98;4.72;;;;;;;14.59;65.53;98541.16;1630717;85;21017;-83
2021/05/14 03:51:00;;;;;;;8.73;4.80;;;;;;;14.72;65.19;98537.07;1607076;87;22928;-84
2021/05/14 03:53:26;;;;;;;9.58;5.05;;;;;;;14.77;65.01;98544.38;1628867;87;20984;-83
2021/05/14 03:55:52;;;;;;;11.50;5.20;;;;;;;14.75;65.24;98547.25;1630263;87;22189;-83
2021/05/14 03:58:21;;;;;;;9.95;5.00;;;;;;;14.66;65.61;98548.06;1627317;87;21068;-85
2021/05/14 04:00:51;;;;;;;11.55;5.28;;;;;;;14.76;65.42;98547.56;1629842;87;21221;-84
2021/05/14 04:03:17;;;;;;;7.83;4.92;;;;;;;14.69;65.74;98556.91;1631799;87;21178;-83
2021/05/14 04:05:43;;;;;;;10.58;5.40;;;;;;;14.75;65.64;98551.77;1633476;86;20978;-84
2021/05/14 04:08:12;;;;;;;8.03;5.20;;;;;;;14.81;65.49;98553.53;1630744;86;21046;-85
2021/05/14 04:16:09;;;;;;;10.38;5.37;;;;;;;15.15;64.59;98543.26;1636653;87;21197;-85
2021/05/14 04:18:39;;;;;;;11.25;5.62;;;;;;;15.09;65.07;98550.31;1631711;87;21026;-84
2021/05/14 04:21:05;;;;;;;8.95;5.30;;;;;;;15.09;65.18;98547.65;1630078;87;21068;-84
2021/05/14 04:23:31;;;;;;;9.65;5.95;;;;;;;15.24;64.83;98553.87;1631237;87;21129;-86
2021/05/14 04:26:01;;;;;;;11.48;5.53;;;;;;;15.29;64.68;98548.70;1629732;87;20991;-88
2021/05/14 04:28:28;;;;;;;9.88;5.90;;;;;;;15.41;64.44;98550.05;1630839;87;21433;-85
2021/05/14 04:30:54;;;;;;;10.35;5.12;;;;;;;15.50;64.28;98547.89;1632854;87;27567;-82
2021/05/14 04:33:20;;;;;;;8.30;5.22;;;;;;;15.61;63.94;98545.77;1628451;87;20931;-84
2021/05/14 04:35:48;;;;;;;13.75;6.35;;;;;;;15.66;63.90;98540.59;1636396;87;20982;-84
2021/05/14 04:38:16;;;;;;;11.05;5.70;;;;;;;15.70;63.90;98545.73;1629482;87;21177;-84
2021/05/14 04:40:41;;;;;;;9.30;5.55;;;;;;;15.76;63.92;98551.47;1625852;87;21360;-85
2021/05/14 04:43:07;;;;;;;11.97;6.37;;;;;;;15.82;63.92;98552.94;1629794;86;21661;-84
2021/05/14 04:45:37;;;;;;;10.82;5.87;;;;;;;15.81;63.84;98552.67;1636537;87;21646;-84
2021/05/14 04:48:10;;;;;;;12.37;6.60;;;;;;;15.80;64.07;98550.54;1633418;86;21186;-84
2021/05/14 04:50:34;;;;;;;11.97;6.25;;;;;;;15.71;64.24;98553.21;1633991;86;21057;-83
2021/05/14 04:53:05;;;;;;;14.53;5.95;;;;;;;15.75;64.09;98552.53;1613228;86;22718;-83
2021/05/14 04:55:33;;;;;;;8.33;5.70;;;;;;;15.94;63.71;98551.94;1608694;88;21121;-83
2021/05/14 04:58:01;;;;;;;11.75;6.65;;;;;;;16.05;63.38;98551.66;1638344;86;21105;-83
2021/05/14 05:00:28;;;;;;;9.75;6.55;;;;;;;16.00;63.73;98559.50;1613068;86;21207;-83
2021/05/14 05:06:44;;;;;;;9.78;6.17;;;;;;;16.11;63.37;98556.05;1624035;88;20975;-83
2021/05/14 05:09:09;;;;;;;10.60;6.50;;;;;;;16.31;63.07;98547.70;1612549;86;21196;-84
2021/05/14 05:11:41;;;;;;;14.85;6.90;;;;;;;16.22;63.28;98550.44;1630018;86;20964;-85
2021/05/14 05:14:13;;;;;;;13.58;6.40;;;;;;;16.27;63.38;98549.20;1626113;86;21137;-89
2021/05/14 05:16:38;;;;;;;17.30;6.75;;;;;;;16.50;62.94;98549.70;1633412;86;21141;-86
2021/05/14 05:19:06;;;;;;;11.05;6.83;;;;;;;16.69;62.46;98544.23;1630938;86;21132;-90
2021/05/14 05:21:34;;;;;;;15.38;6.95;;;;;;;16.90;62.07;98543.32;1632195;85;20947;-89
2021/05/14 05:24:06;;;;;;;15.95;7.50;;;;;;;16.81;61.93;98551.67;1625440;83;21197;-83
2021/05/14 05:26:33;;;;;;;14.58;6.85;;;;;;;16.75;62.56;98552.61;1617482;86;21094;-84
2021/05/14 05:29:03;;;;;;;17.25;7.28;;;;;;;17.01;61.96;98557.12;1614604;86;21521;-84
2021/05/14 05:31:32;;;;;;;13.40;7.05;;;;;;;17.23;61.62;98554.09;1594012;86;21113;-84
2021/05/14 05:33:58;;;;;;;10.20;6.58;;;;;;;17.31;61.83;98556.08;1621953;86;21157;-84
2021/05/14 05:36:25;;;;;;;17.80;7.62;;;;;;;17.46;61.77;98556.34;1610544;86;21095;-84
2021/05/14 05:38:55;;;;;;;;;;;;;;;17.57;62.05;98556.83;1620468;86;21513;-84
2021/05/14 05:41:21;;;;;;;13.85;7.50;;;;;;;17.69;61.98;98558.61;1624497;86;20276;-85
2021/05/14 05:43:46;;;;;;;15.00;8.55;;;;;;;17.76;62.12;98557.94;1628250;86;21145;-84
2021/05/14 05:46:12;;;;;;;16.95;9.23;;;;;;;17.92;62.50;98555.80;1626380;86;21072;-85
2021/05/14 05:48:45;;;;;;;18.23;9.70;;;;;;;18.11;62.67;98558.22;1620871;86;21136;-85
2021/05/14 05:51:15;;;;;;;15.05;8.80;;;;;;;18.17;62.56;98558.58;1625638;86;21042;-85
2021/05/14 05:53:42;;;;;;;14.87;8.50;;;;;;;18.26;62.34;98565.66;1622967;86;21208;-85
2021/05/14 05:56:08;;;;;;;16.42;9.70;;;;;;;18.41;61.81;98559.70;1621414;86;21240;-86
2021/05/14 05:58:35;;;;;;;18.95;10.78;;;;;;;18.51;61.60;98573.22;1624191;86;20975;-83
2021/05/14 06:01:05;;;;;;;17.85;9.98;;;;;;;18.52;61.32;98570.83;1629054;86;29134;-84
2021/05/14 06:03:31;;;;;;;18.85;10.13;;;;;;;18.63;61.20;98569.11;1624204;86;21287;-85
2021/05/14 06:05:56;;;;;;;19.27;10.10;;;;;;;18.81;60.63;98571.45;1626669;86;21748;-87
2021/05/14 06:08:28;;;;;;;20.90;10.25;;;;;;;18.80;60.83;98573.06;1626166;86;21397;-86
2021/05/14 06:10:55;;;;;;;19.75;10.13;;;;;;;18.77;61.02;98574.89;1619263;86;21148;-91
2021/05/14 06:13:24;;;;;;;20.75;10.58;;;;;;;18.94;60.63;98575.66;1623710;86;21173;-89
2021/05/14 06:15:51;;;;;;;19.00;11.12;;;;;;;18.74;61.72;98576.19;1620976;86;21094;-86
2021/05/14 06:18:23;;;;;;;20.80;11.03;;;;;;;18.78;62.08;98577.32;1627116;86;21162;-88
2021/05/14 06:20:49;;;;;;;18.15;10.80;;;;;;;19.05;61.47;98571.23;1626654;86;21230;-86
2021/05/14 06:23:16;;;;;;;22.25;11.03;;;;;;;19.24;61.18;98575.72;1624861;86;21097;-85
2021/05/14 06:25:45;;;;;;;18.65;9.95;;;;;;;19.34;61.29;98569.65;1624595;86;21102;-85
2021/05/14 06:28:25;;;;;;;19.75;10.85;;;;;;;19.50;61.03;98570.09;1633828;86;21105;-85
2021/05/14 06:30:51;;;;;;;21.05;11.70;;;;;;;19.64;60.85;98571.82;1626652;86;21221;-90
2021/05/14 06:33:19;;;;;;;23.90;11.68;;;;;;;19.54;61.21;98569.04;1619429;86;21340;-82
2021/05/14 06:35:45;;;;;;;20.90;11.08;;;;;;;19.50;61.15;98575.44;1622913;86;21753;-87
2021/05/14 06:38:23;;;;;;;21.17;11.00;;;;;;;19.45;61.38;98572.73;1623460;86;21128;-84
2021/05/14 06:40:52;;;;;;;;;;;;;;;19.60;61.03;98570.70;1626695;86;21058;-85
2021/05/14 06:43:22;;;;;;;17.20;10.68;;;;;;;19.58;61.22;98566.14;1625705;86;20514;-82
2021/05/14 06:45:51;;;;;;;17.40;10.88;;;;;;;19.70;60.73;98570.80;1614599;86;21121;-83
2021/05/14 06:48:25;;;;;;;17.48;11.45;;;;;;;19.72;60.82;98565.20;1613293;86;21106;-82
2021/05/14 06:50:50;;;;;;;16.05;10.65;;;;;;;19.70;60.92;98569.47;1608277;88;21164;-78
2021/05/14 06:53:17;;;;;;;22.37;11.05;;;;;;;19.82;60.57;98572.53;1609539;88;21005;-81
2021/05/14 06:55:48;;;;;;;21.20;10.77;;;;;;;19.97;59.83;98579.34;1613030;88;21578;-84
2021/05/14 06:58:18;;;;;;;21.00;11.35;;;;;;;20.09;59.37;98571.94;1587734;88;21825;-81
2021/05/14 07:00:47;;;;;;;16.30;10.75;;;;;;;20.09;59.04;98575.95;1612645;88;21021;-84
2021/05/14 07:03:14;;;;;;;24.98;12.03;;;;;;;20.19;58.71;98574.41;1585516;88;21187;-89
2021/05/14 07:05:40;;;;;;;;;;;;;;;20.08;59.04;98576.21;1612109;87;21575;-81
2021/05/14 07:08:10;;;;;;;20.17;10.73;;;;;;;19.99;58.88;98583.11;1612220;87;20256;-82
2021/05/14 07:10:36;;;;;;;20.02;11.40;;;;;;;20.12;58.60;98586.70;1581984;88;21638;-81
2021/05/14 07:13:01;;;;;;;17.27;11.55;;;;;;;20.34;57.84;98587.91;1607535;87;21654;-80
2021/05/14 07:15:27;;;;;;;18.73;10.28;;;;;;;20.44;57.56;98591.98;1613773;87;20955;-80
2021/05/14 07:17:53;;;;;;;16.55;10.00;;;;;;;20.67;57.08;98594.02;1610276;88;21156;-80
2021/05/14 07:20:20;;;;;;;20.27;10.18;;;;;;;20.75;56.15;98598.87;1611995;87;21127;-84
2021/05/14 07:22:46;;;;;;;19.90;10.10;;;;;;;20.98;55.83;98602.20;1611407;87;21236;-81
2021/05/14 07:25:12;;;;;;;15.85;9.68;;;;;;;21.12;54.97;98589.91;1611556;87;21168;-86
2021/05/14 07:27:41;;;;;;;16.40;8.75;;;;;;;21.16;54.80;98590.17;1607870;87;21081;-84
2021/05/14 07:30:12;;;;;;;16.05;8.45;;;;;;;21.28;54.40;98592.63;1612240;87;21208;-87
2021/05/14 07:32:38;;;;;;;12.60;7.95;;;;;;;21.35;53.59;98593.20;1609036;87;21179;-84
2021/05/14 07:35:06;;;;;;;16.20;9.35;;;;;;;21.45;53.15;98597.22;1613467;87;21352;-87
2021/05/14 07:37:32;;;;;;;21.02;8.68;;;;;;;21.52;53.22;98594.33;1581941;88;21161;-84
2021/05/14 07:40:00;;;;;;;17.85;8.58;;;;;;;21.72;53.27;98594.89;1611016;88;21084;-86
2021/05/14 07:42:25;;;;;;;15.65;7.62;;;;;;;21.91;53.46;98601.05;1611350;88;21072;-84
2021/05/14 07:44:51;;;;;;;12.63;7.70;;;;;;;21.90;50.73;98599.46;1586223;88;21071;-83
2021/05/14 07:47:18;;;;;;;12.30;7.47;;;;;;;21.94;51.37;98599.17;1612307;87;21233;-86
2021/05/14 07:49:50;;;;;;;16.00;8.40;;;;;;;21.98;50.71;98598.91;1607934;87;21195;-82
2021/05/14 07:52:16;;;;;;;12.98;7.58;;;;;;;22.03;50.51;98590.84;1576459;89;21168;-84
2021/05/14 07:54:45;;;;;;;21.33;7.70;;;;;;;22.10;50.29;98604.83;1589172;88;21000;-86
2021/05/14 07:57:13;;;;;;;14.98;7.08;;;;;;;22.09;49.73;98603.20;1591223;89;21516;-84
2021/05/14 07:59:45;;;;;;;12.55;7.10;;;;;;;22.26;49.76;98607.50;1599135;87;21232;-80
2021/05/14 08:02:12;;;;;;;18.35;8.00;;;;;;;22.29;49.06;98602.92;1601135;88;21027;-83
2021/05/14 08:04:42;;;;;;;14.93;7.80;;;;;;;22.23;49.09;98602.11;1598939;87;21199;-89
2021/05/14 08:07:10;;;;;;;10.93;7.45;;;;;;;22.03;48.95;98604.28;1597562;89;21159;-84
2021/05/14 08:09:36;;;;;;;16.35;7.97;;;;;;;22.45;48.65;98605.07;1594267;89;21232;-82
2021/05/14 08:12:05;;;;;;;15.58;7.97;;;;;;;22.56;48.48;98608.82;1595903;88;22508;-87
2021/05/14 08:14:29;;;;;;;13.80;7.22;;;;;;;22.59;48.14;98612.31;1595061;88;21204;-81
2021/05/14 08:16:58;;;;;;;13.62;6.50;;;;;;;22.77;47.99;98614.93;1598706;88;21016;-82
2021/05/14 08:19:24;;;;;;;12.63;6.10;;;;;;;22.74;46.69;98616.03;1594642;87;21557;-79
2021/05/14 08:21:50;;;;;;;13.48;5.87;;;;;;;22.88;46.62;98613.02;1594113;88;21106;-77
2021/05/14 08:24:16;;;;;;;10.03;5.87;;;;;;;22.89;45.91;98614.63;1598048;89;22189;-84
2021/05/14 08:26:43;;;;;;;12.70;6.53;;;;;;;22.93;45.91;98613.02;1600648;87;21152;-77
2021/05/14 08:29:09;;;;;;;18.20;5.80;;;;;;;22.99;45.93;98619.71;1593534;88;21219;-78
2021/05/14 08:31:38;;;;;;;10.28;4.85;;;;;;;23.11;45.79;98616.98;1597746;88;20962;-81
2021/05/14 08:34:06;;;;;;;13.80;4.37;;;;;;;23.22;43.45;98617.74;1601397;89;21166;-84
2021/05/14 08:36:33;;;;;;;8.95;4.17;;;;;;;23.39;43.78;98619.28;1598479;87;21022;-81
2021/05/14 08:38:58;;;;;;;;;;;;;;;23.44;43.24;98618.69;1598092;87;21612;-85
2021/05/14 08:41:26;;;;;;;6.25;2.90;;;;;;;23.53;41.74;98620.27;1600203;88;20428;-84
2021/05/14 08:43:58;;;;;;;8.28;3.05;;;;;;;23.46;40.50;98622.45;1567884;89;21273;-83
2021/05/14 08:46:29;;;;;;;6.62;3.20;;;;;;;23.52;39.07;98621.34;1593502;88;21154;-87
2021/05/14 08:48:56;;;;;;;7.00;3.55;;;;;;;23.52;39.56;98626.73;1601823;86;21258;-85
2021/05/14 08:51:27;;;;;;;7.22;3.05;;;;;;;23.74;39.58;98625.52;1615142;85;21156;-81
2021/05/14 08:53:52;;;;;;;6.97;3.65;;;;;;;23.77;39.89;98623.60;1636565;85;21920;-81
2021/05/14 08:56:18;;;;;;;8.70;3.75;;;;;;;23.78;40.24;98626.57;1638883;85;21032;-82
2021/05/14 08:58:44;;;;;;;10.63;4.25;;;;;;;23.61;40.16;98625.61;1644300;86;21005;-81
2021/05/14 09:02:10;;;;;;;11.45;4.72;;;;;;;23.32;40.77;98633.06;1787422;79;22151;-84
2021/05/14 09:04:37;;;;;;;10.95;3.87;;;;;;;23.00;41.38;98632.10;1718730;80;21012;-87
2021/05/14 09:07:15;;;;;;;;;;;;;;;23.21;41.03;98635.52;1763746;80;21048;-82
2021/05/14 09:10:02;;;;;;;7.70;3.10;;;;;;;23.19;40.67;98636.35;1761054;80;21074;-86
2021/05/14 09:12:40;;;;;;;;;;;;;;;23.13;40.72;98636.91;1758062;80;21048;-82
2021/05/14 09:15:34;;;;;;;9.73;3.50;;;;;;;23.18;40.70;98640.94;1758261;79;20629;-84
2021/05/14 09:18:23;;;;;;;8.68;3.10;;;;;;;23.14;40.64;98643.12;1760142;79;21000;-84
2021/05/14 09:20:56;;;;;;;11.65;3.47;;;;;;;23.18;39.97;98649.55;1765096;80;21081;-83
2021/05/14 09:23:51;;;;;;;9.10;3.37;;;;;;;23.06;39.97;98647.16;1729133;80;20996;-85
2021/05/14 09:26:21;;;;;;;8.28;3.77;;;;;;;23.17;40.14;98649.30;1712606;82;22167;-85
2021/05/14 09:28:50;;;;;;;10.78;3.83;;;;;;;23.13;39.77;98643.64;1712961;82;20988;-84
2021/05/14 09:31:22;;;;;;;10.18;3.95;;;;;;;23.24;39.84;98643.87;1719575;81;21604;-84
2021/05/14 09:33:56;;;;;;;10.53;4.03;;;;;;;23.22;39.69;98647.37;1723760;81;21003;-86
2021/05/14 09:36:37;;;;;;;9.73;3.50;;;;;;;23.17;39.88;98647.41;1713443;81;21072;-84
2021/05/14 09:39:07;;;;;;;8.88;3.70;;;;;;;23.34;40.18;98648.92;1722040;81;21186;-82
2021/05/14 09:41:42;;;;;;;9.28;3.70;;;;;;;23.43;39.75;98651.30;1718906;81;21402;-84
2021/05/14 09:44:18;;;;;;;11.22;3.98;;;;;;;23.51;39.06;98653.95;1711254;81;21895;-84
2021/05/14 09:46:58;;;;;;;9.83;4.35;;;;;;;23.23;39.46;98659.77;1666717;82;21006;-84
2021/05/14 09:49:28;;;;;;;11.65;4.50;;;;;;;23.07;39.95;98652.79;1711711;82;21607;-84
2021/05/14 09:52:05;;;;;;;7.15;3.85;;;;;;;23.09;39.86;98647.98;1692963;82;21016;-84
2021/05/14 09:54:42;;;;;;;15.72;4.30;;;;;;;22.98;40.38;98652.57;1717110;81;21050;-86
2021/05/14 10:00:00;;;;;;;12.65;3.92;;;;;;;23.34;39.66;98648.92;1721687;82;21541;-82
2021/05/14 10:02:30;;;;;;;9.90;3.70;;;;;;;23.60;39.55;98652.28;1717503;81;21262;-86
2021/05/14 10:04:59;;;;;;;10.28;3.98;;;;;;;23.74;39.27;98648.42;1712326;81;21629;-87
2021/05/14 10:07:29;;;;;;;10.00;4.08;;;;;;;23.65;39.71;98653.06;1724103;82;21003;-88
2021/05/14 10:10:00;;;;;;;13.22;4.42;;;;;;;23.42;39.38;98651.05;1714928;81;21010;-84
2021/05/14 10:12:25;;;;;;;13.35;4.33;;;;;;;23.04;39.06;98646.08;1718339;81;21056;-89
2021/05/14 10:14:51;;;;;;;6.45;3.02;;;;;;;22.99;38.87;98650.67;1720170;81;21101;-87
2021/05/14 10:17:21;;;;;;;6.37;2.90;;;;;;;22.96;36.43;98643.94;1686631;82;21052;-83
2021/05/14 10:19:48;;;;;;;6.45;2.92;;;;;;;23.06;36.86;98653.89;1717654;82;21036;-85
2021/05/14 10:22:14;;;;;;;7.53;3.37;;;;;;;23.10;36.94;98648.23;1722842;81;21075;-82
2021/05/14 10:24:46;;;;;;;6.40;3.05;;;;;;;23.05;37.60;98646.88;1687985;82;21137;-87
2021/05/14 10:27:21;;;;;;;10.10;3.85;;;;;;;23.11;37.98;98648.50;1735395;81;21712;-83
2021/05/14 10:29:53;;;;;;;5.67;3.45;;;;;;;22.88;37.90;98650.70;1732323;82;21020;-86
2021/05/14 10:32:47;;;;;;;6.10;3.30;;;;;;;23.21;38.16;98643.08;1707517;82;21095;-86
2021/05/14 10:35:33;;;;;;;8.55;3.37;;;;;;;23.29;37.76;98641.70;1729126;81;21128;-89
2021/05/14 10:38:11;;;;;;;7.92;3.80;;;;;;;23.39;37.71;98638.14;1728153;82;21766;-90
2021/05/14 10:40:42;;;;;;;8.68;3.58;;;;;;;23.27;37.94;98638.46;1705727;82;21799;-85
2021/05/14 10:43:22;;;;;;;6.42;3.47;;;;;;;23.44;37.85;98638.10;1733344;81;21036;-87
2021/05/14 10:45:52;;;;;;;5.42;3.10;;;;;;;23.63;37.29;98639.59;1735648;82;21573;-90
2021/05/14 10:48:19;;;;;;;6.17;3.08;;;;;;;23.59;35.13;98642.05;1683721;82;21029;-91
2021/05/14 10:51:00;;;;;;;6.47;3.10;;;;;;;23.61;35.93;98645.27;1736468;81;21031;-90
2021/05/14 10:53:51;;;;;;;5.72;3.37;;;;;;;23.73;36.29;98645.48;1729833;82;21002;-92
2021/05/14 10:56:24;;;;;;;7.55;3.22;;;;;;;23.46;36.40;98641.31;1651629;85;21064;-91
2021/05/14 10:59:05;;;;;;;9.10;3.45;;;;;;;23.62;36.20;98640.15;1620677;86;21021;-86
2021/05/14 11:01:40;;;;;;;6.90;2.80;;;;;;;23.80;35.72;98644.61;1649667;85;21155;-92
2021/05/14 11:04:18;;;;;;;8.10;2.90;;;;;;;23.77;35.52;98645.17;1651358;85;21175;-92
2021/05/14 11:06:48;;;;;;;10.60;3.22;;;;;;;23.69;35.83;98656.55;1644382;85;21053;-90
2021/05/14 11:09:16;;;;;;;5.80;3.22;;;;;;;23.69;35.26;98643.87;1648375;85;21049;-87
2021/05/14 11:12:05;;;;;;;6.45;2.92;;;;;;;23.84;35.38;98641.10;1651709;85;21084;-88
2021/05/14 11:14:47;;;;;;;6.50;2.98;;;;;;;23.98;35.29;98648.56;1647856;85;21060;-87
2021/05/14 11:17:16;;;;;;;4.15;2.75;;;;;;;24.20;35.45;98640.02;1647749;85;22000;-88
2021/05/14 11:19:54;;;;;;;6.80;3.20;;;;;;;23.99;34.75;98647.48;1644819;85;21091;-87
2021/05/14 11:22:38;;;;;;;8.90;3.30;;;;;;;23.90;34.54;98652.66;1645200;85;21112;-87
2021/05/14 11:25:17;;;;;;;6.17;3.08;;;;;;;23.72;34.03;98644.66;1629039;85;20977;-87
2021/05/14 11:27:45;;;;;;;4.65;2.90;;;;;;;23.63;33.71;98652.55;1645100;85;21023;-88
2021/05/14 11:30:15;;;;;;;5.37;3.27;;;;;;;23.56;33.63;98643.95;1623677;85;21838;-88
2021/05/14 11:32:48;;;;;;;6.97;3.10;;;;;;;23.58;34.38;98652.56;1648610;85;20996;-87
2021/05/14 11:35:21;;;;;;;5.40;3.08;;;;;;;23.61;34.15;98659.30;1649187;85;21089;-89
2021/05/14 11:37:58;;;;;;;6.10;3.05;;;;;;;23.71;33.58;98655.20;1648178;85;21053;-88
2021/05/14 11:40:27;;;;;;;;;;;;;;;23.76;33.82;98651.66;1656929;85;21065;-83
2021/05/14 11:43:06;;;;;;;5.60;3.20;;;;;;;23.72;34.28;98657.34;1649796;85;21034;-90
2021/05/14 11:45:36;;;;;;;8.18;3.12;;;;;;;23.92;33.88;98666.66;1626528;85;21082;-84
2021/05/14 11:48:15;;;;;;;5.65;2.80;;;;;;;24.22;33.86;98660.76;1651457;85;21625;-91
2021/05/14 11:50:52;;;;;;;7.83;3.65;;;;;;;24.16;33.06;98659.19;1647423;85;21021;-88
2021/05/14 11:53:19;;;;;;;6.03;3.50;;;;;;;24.07;32.42;98663.61;1623980;86;21171;-94
2021/05/14 11:55:48;;;;;;;5.40;2.90;;;;;;;24.28;32.83;98654.23;1659976;84;21135;-90